Thursday, November 23, 2017, 4:36 AM EST
Back to Local

KEEN, Keene, Dillant-hopkins Airport

Location: Keene, NH, United States Lat: 42.9
Local Time: 4:36 AM EST ( 9:36 GMT) Lon: -72.267
Time Zone: US/Eastern Elev: 488 ft

Show me the last for .
Show Decoded

2017-11-23 03:56 METAR KEEN 230856Z AUTO 35006KT 10SM CLR M02/M07 A3002 RMK AO2 SLP188 T10221072
                 51012 FZRANO =
2017-11-23 02:56 METAR KEEN 230756Z AUTO VRB06KT 10SM OVC031 M01/M07 A3002 RMK AO2 SLP186
                 T10061067 FZRANO =
2017-11-23 01:56 METAR KEEN 230656Z AUTO 30006KT 10SM OVC033 M01/M06 A3001 RMK AO2 SLP182
                 T10061061 FZRANO =
2017-11-23 00:56 METAR KEEN 230556Z AUTO 30006KT 10SM FEW035 00/M06 A2999 RMK AO2 SLP176
                 T00001056 10033 20000 51013 FZRANO =
2017-11-22 23:56 METAR KEEN 230456Z AUTO 32011G16KT 10SM OVC031 01/M05 A2998 RMK AO2 SLP171
                 T00111050 400501022 FZRANO =
2017-11-22 22:56 METAR KEEN 230356Z AUTO 35012G20KT 10SM OVC033 02/M05 A2997 RMK AO2 SLP168
                 T00171050 FZRANO =
2017-11-22 21:56 METAR KEEN 230256Z AUTO 33009G20KT 10SM OVC035 02/M04 A2995 RMK AO2 SLP162
                 T00221044 53007 FZRANO =
2017-11-22 20:56 METAR KEEN 230156Z AUTO 33009KT 10SM FEW030 OVC037 03/M02 A2994 RMK AO2 SLP160
                 T00281017 =
2017-11-22 19:56 METAR KEEN 230056Z AUTO 32009G16KT 10SM SCT029 OVC043 03/M01 A2993 RMK AO2
                 SLP157 T00281011 =
2017-11-22 19:39 METAR KEEN 230039Z AUTO VRB06KT 10SM OVC029 03/M01 A2993 RMK AO2 =
2017-11-22 18:56 METAR KEEN 222356Z AUTO 32006KT 10SM OVC039 03/M01 A2993 RMK AO2 SLP156 60003
                 T00331006 10050 20028 51013 =
2017-11-22 17:56 METAR KEEN 222256Z AUTO 33005KT 10SM BKN035 BKN049 OVC075 03/00 A2992 RMK AO2
                 SLP153 T00280000 =
2017-11-22 17:09 METAR KEEN 222209Z AUTO 34005KT 10SM SCT022 OVC043 03/01 A2990 RMK AO2 =
2017-11-22 16:56 METAR KEEN 222156Z AUTO 32003KT 10SM BKN022 OVC041 03/01 A2990 RMK AO2 SLP148
                 T00330011 =
2017-11-22 16:40 METAR KEEN 222140Z AUTO 34006KT 10SM BKN022 OVC037 04/02 A2990 RMK AO2 =
2017-11-22 16:13 METAR KEEN 222113Z AUTO VRB05KT 10SM SCT022 SCT028 OVC033 04/02 A2990 RMK AO2 =
2017-11-22 15:56 METAR KEEN 222056Z AUTO 33008KT 10SM BKN022 BKN026 OVC043 04/02 A2989 RMK AO2
                 SLP142 60003 T00440022 53012 =
2017-11-22 15:40 METAR KEEN 222040Z AUTO 33007KT 10SM SCT016 BKN024 OVC045 05/03 A2988 RMK AO2 =
2017-11-22 14:56 METAR KEEN 221956Z AUTO 00000KT 10SM BKN013 BKN021 OVC026 05/04 A2987 RMK AO2
                 RAE52 SLP136 P0002 T00500044 =
2017-11-22 13:56 METAR KEEN 221856Z AUTO 00000KT 6SM -RA BR FEW021 BKN028 OVC033 04/04 A2985 RMK
                 AO2 SLP131 P0001 T00440039 =
2017-11-22 12:56 METAR KEEN 221756Z AUTO 00000KT 5SM -RA BR FEW001 BKN047 OVC060 04/03 A2985 RMK
                 AO2 SLP128 P0006 60010 T00390033 10039 21011 58015 =
2017-11-22 12:47 METAR KEEN 221747Z AUTO 00000KT 4SM -RA BR FEW001 BKN044 OVC050 04/03 A2984 RMK
                 AO2 P0005 =
2017-11-22 11:56 METAR KEEN 221656Z AUTO 00000KT 5SM -RA BR SCT047 OVC055 03/03 A2987 RMK AO2
                 SLP136 P0002 T00330028 =
2017-11-22 10:56 METAR KEEN 221556Z AUTO 00000KT 9SM -RA FEW016 OVC055 02/02 A2989 RMK AO2 SLP143
                 P0001 T00220017 FZRANO =
2017-11-22 10:51 METAR KEEN 221551Z AUTO 00000KT 10SM -RA SCT016 OVC050 02/02 A2989 RMK AO2 P0001
                 FZRANO =
2017-11-22 10:35 METAR KEEN 221535Z AUTO 00000KT 9SM -RA BKN016 OVC048 02/01 A2990 RMK AO2 P0001
                 FZRANO =
2017-11-22 10:28 METAR KEEN 221528Z AUTO 00000KT 7SM -RA SCT016 BKN033 OVC048 02/01 A2990 RMK AO2
                 P0001 FZRANO =
2017-11-22 09:56 METAR KEEN 221456Z AUTO 20004KT 7SM -RA OVC026 02/01 A2990 RMK AO2 RAB10 SLP148
                 P0001 60001 T00170006 56009 FZRANO =
2017-11-22 09:37 METAR KEEN 221437Z AUTO 19003KT 8SM -RA FEW023 OVC028 01/01 A2991 RMK AO2 RAB10
                 P0000 FZRANO =
2017-11-22 08:56 METAR KEEN 221356Z AUTO 00000KT 10SM BKN100 OVC110 01/M01 A2992 RMK AO2 SLP152
                 T00061006 FZRANO =
2017-11-22 07:56 METAR KEEN 221256Z AUTO 02004KT 10SM CLR 00/M01 A2991 RMK AO2 SLP149 T00001011
                 FZRANO =
2017-11-22 06:56 METAR KEEN 221156Z AUTO 02004KT 9SM FEW070 SCT090 M01/M02 A2993 RMK AO2 SLP158
                 T10111022 11006 21022 56014 FZRANO =
2017-11-22 05:56 METAR KEEN 221056Z AUTO 00000KT 10SM CLR M01/M02 A2994 RMK AO2 SLP162 T10111022
                 FZRANO =
2017-11-22 04:56 METAR KEEN 220956Z AUTO 00000KT 10SM CLR M01/M02 A2996 RMK AO2 SLP166 T10111022
                 FZRANO =

Support USWX by starting your Amazon purchase here.